createdAt,value
2023-05-16T00:02:22.387Z,52.24
2023-05-16T00:06:22.837Z,52.27
2023-05-16T00:10:23.348Z,52.38
2023-05-16T00:14:26.792Z,53.08
2023-05-16T00:18:27.334Z,52.69
2023-05-16T00:22:28.093Z,52.51
2023-05-16T00:26:28.488Z,52.91
2023-05-16T00:30:31.777Z,53.16
2023-05-16T00:34:32.119Z,52.90
2023-05-16T00:38:32.630Z,52.85
2023-05-16T00:42:33.371Z,52.87
2023-05-16T00:46:36.393Z,53.13
2023-05-16T00:50:37.924Z,53.89
2023-05-16T00:54:39.809Z,53.49
2023-05-16T00:58:40.854Z,53.32
2023-05-16T01:02:44.842Z,54.01
2023-05-16T01:06:45.203Z,53.35
2023-05-16T01:10:56.391Z,53.54
2023-05-16T01:15:08.768Z,54.23
2023-05-16T01:19:31.366Z,54.90
2023-05-16T01:23:47.109Z,55.00
2023-05-16T01:27:52.521Z,54.37
2023-05-16T01:31:52.961Z,54.21
2023-05-16T01:36:04.416Z,54.34
2023-05-16T01:40:15.344Z,54.31
2023-05-16T01:44:28.992Z,53.37
2023-05-16T01:48:36.698Z,54.27
2023-05-16T01:52:45.575Z,54.34
2023-05-16T01:56:54.403Z,54.24
2023-05-16T02:01:05.754Z,54.81
2023-05-16T02:05:06.049Z,54.20
2023-05-16T02:09:06.724Z,54.62
2023-05-16T02:13:06.979Z,55.20
2023-05-16T02:17:10.636Z,55.45
2023-05-16T02:21:10.991Z,54.91
2023-05-16T02:25:13.346Z,55.16
2023-05-16T02:29:15.402Z,55.32
2023-05-16T02:33:18.554Z,55.73
2023-05-16T02:37:20.036Z,55.54
2023-05-16T02:41:23.389Z,55.64
2023-05-16T02:45:23.645Z,56.18
2023-05-16T02:49:26.968Z,55.57
2023-05-16T02:53:27.312Z,56.05
2023-05-16T02:57:27.508Z,56.09
2023-05-16T03:01:27.741Z,55.57
2023-05-16T03:05:30.821Z,55.29
2023-05-16T03:09:31.265Z,55.27
2023-05-16T03:13:31.974Z,55.35
2023-05-16T03:17:32.675Z,55.40
2023-05-16T03:21:35.647Z,55.32
2023-05-16T03:25:36.474Z,54.92
2023-05-16T03:29:36.698Z,54.51
2023-05-16T03:33:38.360Z,55.06
2023-05-16T03:37:41.408Z,55.53
2023-05-16T03:41:42.065Z,56.38
2023-05-16T03:45:42.344Z,55.87
2023-05-16T03:49:42.812Z,56.58
2023-05-16T03:53:45.971Z,56.74
2023-05-16T03:57:48.001Z,56.97
2023-05-16T04:01:48.242Z,56.36
2023-05-16T04:05:48.521Z,55.96
2023-05-16T04:09:51.589Z,56.81
2023-05-16T04:13:52.451Z,55.58
2023-05-16T04:17:52.761Z,55.57
2023-05-16T04:21:53.137Z,55.99
2023-05-16T04:25:57.130Z,56.30
2023-05-16T04:29:58.319Z,56.26
2023-05-16T04:33:58.709Z,56.22
2023-05-16T04:37:59.026Z,55.41
2023-05-16T04:42:02.089Z,55.84
2023-05-16T04:46:02.689Z,55.04
2023-05-16T04:50:03.143Z,54.21
2023-05-16T04:54:03.378Z,53.72
2023-05-16T04:58:06.493Z,53.69
2023-05-16T05:02:08.103Z,52.46
2023-05-16T05:06:09.000Z,52.92
2023-05-16T05:10:11.152Z,52.43
2023-05-16T05:14:14.151Z,51.92
2023-05-16T05:18:14.698Z,52.27
2023-05-16T05:22:14.922Z,52.12
2023-05-16T05:26:15.261Z,51.36
2023-05-16T05:30:18.245Z,50.41
2023-05-16T05:34:18.589Z,50.84
2023-05-16T05:38:18.823Z,50.10
2023-05-16T05:42:19.287Z,49.56
2023-05-16T05:46:22.159Z,48.74
2023-05-16T05:50:22.646Z,48.59
2023-05-16T05:54:23.790Z,48.42
2023-05-16T05:58:25.108Z,48.21
2023-05-16T06:02:28.195Z,47.06
2023-05-16T06:06:29.436Z,46.28
2023-05-16T06:10:29.770Z,45.90
2023-05-16T06:14:30.301Z,45.73
2023-05-16T06:18:33.177Z,44.63
2023-05-16T06:22:33.902Z,44.98
2023-05-16T06:26:34.081Z,43.80
2023-05-16T06:30:34.254Z,43.12
2023-05-16T06:34:37.896Z,41.76
2023-05-16T06:38:38.175Z,41.83
2023-05-16T06:42:38.602Z,40.62
2023-05-16T06:46:38.968Z,39.83
2023-05-16T06:50:42.090Z,40.00
2023-05-16T06:54:42.489Z,39.92
2023-05-16T06:58:42.961Z,40.12
2023-05-16T07:02:43.257Z,39.43
2023-05-16T07:06:46.368Z,39.27
2023-05-16T07:10:46.939Z,38.67
2023-05-16T07:14:47.998Z,38.53
2023-05-16T07:18:48.458Z,38.49
2023-05-16T07:22:51.799Z,38.85
2023-05-16T07:26:52.282Z,38.48
2023-05-16T07:30:52.813Z,38.54
2023-05-16T07:34:53.113Z,38.30
2023-05-16T07:38:57.247Z,36.75
2023-05-16T07:42:57.923Z,37.20
2023-05-16T07:46:58.175Z,35.71
2023-05-16T07:50:58.421Z,35.42
2023-05-16T07:55:01.375Z,35.96
2023-05-16T07:59:03.248Z,35.67
2023-05-16T08:03:03.953Z,35.10
2023-05-16T08:07:04.514Z,33.99
2023-05-16T08:11:08.293Z,33.47
2023-05-16T08:15:11.445Z,33.34
2023-05-16T08:19:11.862Z,33.38
2023-05-16T08:23:12.273Z,32.16
2023-05-16T08:27:15.111Z,31.48
2023-05-16T08:31:15.534Z,29.20
2023-05-16T08:35:16.267Z,27.26
2023-05-16T08:39:16.561Z,25.65
2023-05-16T08:43:19.448Z,25.71
2023-05-16T08:47:25.146Z,25.51
2023-05-16T08:51:31.116Z,26.70
2023-05-16T08:55:31.878Z,25.64
2023-05-16T08:59:35.809Z,25.85
2023-05-16T09:03:36.457Z,27.97
2023-05-16T09:07:37.547Z,28.67
2023-05-16T09:11:38.294Z,28.43
2023-05-16T09:15:41.518Z,30.42
2023-05-16T09:19:43.158Z,30.95
2023-05-16T09:23:47.243Z,30.43
2023-05-16T09:27:49.501Z,30.63
2023-05-16T09:31:53.007Z,29.20
2023-05-16T09:35:59.902Z,30.19
2023-05-16T09:40:00.137Z,29.30
2023-05-16T09:44:02.815Z,29.30
2023-05-16T09:48:10.388Z,27.95
2023-05-16T09:52:10.672Z,27.79
2023-05-16T09:56:14.686Z,26.21
2023-05-16T10:00:17.229Z,27.10
2023-05-16T10:04:20.452Z,26.97
2023-05-16T10:08:21.497Z,26.75
2023-05-16T10:12:23.302Z,27.28
2023-05-16T10:16:27.012Z,28.36
2023-05-16T10:20:30.643Z,29.14
2023-05-16T10:24:46.689Z,31.85
2023-05-16T10:28:47.333Z,34.02
2023-05-16T10:32:50.709Z,36.15
2023-05-16T10:36:55.211Z,36.72
2023-05-16T10:40:57.010Z,37.33
2023-05-16T10:45:05.122Z,37.07
2023-05-16T10:49:24.161Z,38.35
2023-05-16T10:53:36.087Z,38.56
2023-05-16T10:57:37.238Z,40.62
2023-05-16T11:01:39.009Z,39.67
2023-05-16T11:05:40.159Z,39.80
2023-05-16T11:09:48.237Z,39.42
2023-05-16T11:13:57.882Z,41.19
2023-05-16T11:18:10.164Z,37.92
2023-05-16T11:22:28.652Z,35.24
2023-05-16T11:26:31.542Z,32.57
2023-05-16T11:30:32.038Z,31.11
2023-05-16T11:34:33.488Z,30.37
2023-05-16T11:38:35.423Z,30.44
2023-05-16T11:42:41.679Z,27.67
2023-05-16T11:46:43.885Z,27.55
2023-05-16T11:50:44.491Z,28.60
2023-05-16T11:54:45.090Z,29.51
2023-05-16T11:58:48.407Z,30.56
2023-05-16T12:02:49.971Z,31.18
2023-05-16T12:07:04.384Z,31.50
2023-05-16T12:11:04.743Z,31.31
2023-05-16T12:15:11.130Z,30.76
2023-05-16T12:19:12.569Z,31.09
2023-05-16T12:23:15.092Z,30.82
2023-05-16T12:27:15.599Z,31.39
2023-05-16T12:31:31.606Z,31.60
2023-05-16T12:35:35.144Z,31.45
2023-05-16T12:39:41.652Z,32.53
2023-05-16T12:43:41.915Z,32.46
2023-05-16T12:47:44.688Z,32.59
2023-05-16T12:51:52.742Z,32.63
2023-05-16T12:55:53.090Z,32.30
2023-05-16T12:59:53.432Z,32.22
2023-05-16T13:03:56.732Z,32.85
2023-05-16T13:07:57.265Z,33.40
2023-05-16T13:11:57.487Z,33.85
2023-05-16T13:15:57.806Z,33.90
2023-05-16T13:20:00.848Z,33.33
2023-05-16T13:24:01.511Z,33.45
2023-05-16T13:28:01.734Z,33.27
2023-05-16T13:32:02.403Z,33.50
2023-05-16T13:36:05.984Z,34.83
2023-05-16T13:40:10.747Z,35.28
2023-05-16T13:44:11.245Z,35.12
2023-05-16T13:48:11.704Z,34.54
2023-05-16T13:52:15.092Z,35.13
2023-05-16T13:56:15.395Z,36.25
2023-05-16T14:00:42.829Z,35.78
2023-05-16T14:04:37.388Z,35.67
2023-05-16T14:08:40.445Z,35.88
2023-05-16T14:12:43.024Z,36.73
2023-05-16T14:16:46.213Z,36.82
2023-05-16T14:20:47.098Z,37.19
2023-05-16T14:24:49.860Z,37.39
2023-05-16T14:28:50.072Z,37.90
2023-05-16T14:32:50.362Z,37.99
2023-05-16T14:36:51.043Z,38.36
2023-05-16T14:40:53.946Z,37.92
2023-05-16T14:44:54.236Z,38.45
2023-05-16T14:48:54.434Z,38.61
2023-05-16T14:52:54.799Z,37.83
2023-05-16T14:57:00.288Z,36.98
2023-05-16T15:01:01.094Z,36.74
2023-05-16T15:05:01.465Z,36.67
2023-05-16T15:09:01.906Z,37.65
2023-05-16T15:13:04.876Z,38.44
2023-05-16T15:17:06.692Z,37.15
2023-05-16T15:21:09.959Z,37.25
2023-05-16T15:25:12.721Z,38.26
2023-05-16T15:29:15.660Z,38.80
2023-05-16T15:33:16.525Z,39.78
2023-05-16T15:37:16.860Z,40.28
2023-05-16T15:41:31.901Z,41.14
2023-05-16T15:45:40.689Z,40.45
2023-05-16T15:49:41.777Z,40.33
2023-05-16T15:53:42.576Z,41.16
2023-05-16T15:57:44.121Z,41.21
2023-05-16T16:01:47.392Z,41.42
2023-05-16T16:05:51.568Z,42.84
2023-05-16T16:09:51.904Z,42.05
2023-05-16T16:13:53.522Z,42.46
2023-05-16T16:17:56.485Z,42.10
2023-05-16T16:21:56.877Z,43.13
2023-05-16T16:25:57.244Z,43.88
2023-05-16T16:29:58.289Z,43.88
2023-05-16T16:34:01.167Z,44.74
2023-05-16T16:38:06.760Z,44.56
2023-05-16T16:42:07.951Z,45.74
2023-05-16T16:46:08.683Z,45.72
2023-05-16T16:50:13.123Z,45.78
2023-05-16T16:54:13.362Z,45.60
2023-05-16T16:58:13.722Z,45.35
2023-05-16T17:02:14.024Z,45.31
2023-05-16T17:06:17.007Z,45.70
2023-05-16T17:10:17.974Z,45.71
2023-05-16T17:14:18.262Z,45.68
2023-05-16T17:18:19.774Z,44.99
2023-05-16T17:22:23.462Z,45.80
2023-05-16T17:26:23.862Z,45.60
2023-05-16T17:30:24.481Z,45.36
2023-05-16T17:34:24.909Z,44.51
2023-05-16T17:38:28.033Z,44.02
2023-05-16T17:42:28.468Z,43.62
2023-05-16T17:46:28.996Z,43.15
2023-05-16T17:50:29.318Z,42.29
2023-05-16T17:54:32.822Z,41.69
2023-05-16T17:58:33.244Z,41.45
2023-05-16T18:02:34.945Z,41.12
2023-05-16T18:06:37.379Z,41.42
2023-05-16T18:10:51.171Z,41.87
2023-05-16T18:14:52.545Z,42.27
2023-05-16T18:18:53.138Z,42.59
2023-05-16T18:22:53.529Z,42.28
2023-05-16T18:26:56.587Z,42.80
2023-05-16T18:30:56.959Z,43.80
2023-05-16T18:34:57.783Z,44.25
2023-05-16T18:38:58.192Z,44.40
2023-05-16T18:43:01.351Z,44.68
2023-05-16T18:47:02.094Z,44.88
2023-05-16T18:51:02.794Z,44.83
2023-05-16T18:59:25.240Z,45.21
2023-05-16T19:03:25.727Z,45.13
2023-05-16T19:07:26.223Z,45.47
2023-05-16T19:11:26.793Z,45.81
2023-05-16T19:15:30.503Z,47.29
2023-05-16T19:19:31.383Z,47.38
2023-05-16T19:23:32.103Z,47.75
2023-05-16T19:27:32.954Z,47.19
2023-05-16T19:31:36.068Z,47.37
2023-05-16T19:35:36.367Z,48.08
2023-05-16T19:39:37.594Z,48.56
2023-05-16T19:43:39.321Z,48.94
2023-05-16T19:47:42.574Z,48.03
2023-05-16T19:51:43.110Z,47.35
2023-05-16T19:55:43.452Z,47.10
2023-05-16T19:59:44.155Z,46.95
2023-05-16T20:03:47.107Z,47.16
2023-05-16T20:07:48.642Z,47.03
2023-05-16T20:11:48.926Z,47.04
2023-05-16T20:15:49.462Z,46.82
2023-05-16T20:19:52.374Z,47.23
2023-05-16T20:23:53.501Z,48.21
2023-05-16T20:27:53.993Z,49.29
2023-05-16T20:31:54.271Z,49.20
2023-05-16T20:35:57.153Z,49.27
2023-05-16T20:39:57.554Z,50.19
2023-05-16T20:43:57.788Z,49.96
2023-05-16T20:47:58.199Z,50.35
2023-05-16T20:52:01.568Z,50.05
2023-05-16T20:56:02.144Z,50.71
2023-05-16T21:00:03.510Z,51.21
2023-05-16T21:04:05.097Z,51.13
2023-05-16T21:08:08.657Z,50.98
2023-05-16T21:12:09.920Z,50.93
2023-05-16T21:16:12.802Z,50.97
2023-05-16T21:20:14.161Z,51.33
2023-05-16T21:24:16.927Z,51.03
2023-05-16T21:28:17.225Z,51.61
2023-05-16T21:32:17.520Z,51.77
2023-05-16T21:36:18.236Z,51.91
2023-05-16T21:40:25.186Z,52.77
2023-05-16T21:44:25.847Z,52.39
2023-05-16T21:48:26.288Z,52.88
2023-05-16T21:52:27.282Z,52.89
2023-05-16T21:56:30.248Z,52.99
2023-05-16T22:00:30.669Z,53.04
2023-05-16T22:04:31.462Z,53.11
2023-05-16T22:08:31.907Z,53.30
2023-05-16T22:12:34.762Z,53.43
2023-05-16T22:16:34.955Z,53.75
2023-05-16T22:20:35.317Z,53.89
2023-05-16T22:24:35.505Z,54.20
2023-05-16T22:28:38.327Z,54.08
2023-05-16T22:32:38.680Z,53.95
2023-05-16T22:36:39.547Z,53.66
2023-05-16T22:40:41.341Z,53.64
2023-05-16T22:44:44.365Z,53.02
2023-05-16T22:48:44.696Z,51.94
2023-05-16T22:52:45.018Z,51.00
2023-05-16T22:56:45.648Z,50.41
2023-05-16T23:00:48.903Z,50.13
2023-05-16T23:04:49.813Z,49.14
2023-05-16T23:08:50.432Z,48.93
2023-05-16T23:12:51.058Z,48.90
2023-05-16T23:16:53.976Z,48.94
2023-05-16T23:20:54.231Z,48.82
2023-05-16T23:24:55.195Z,48.73
2023-05-16T23:28:55.434Z,48.37
2023-05-16T23:32:58.713Z,48.43
2023-05-16T23:36:58.946Z,48.72
2023-05-16T23:40:59.247Z,49.04
2023-05-16T23:44:59.484Z,49.23
2023-05-16T23:49:02.592Z,50.10
2023-05-16T23:53:02.917Z,49.94
2023-05-16T23:57:03.515Z,50.46
